Time;durP1;ratioP1;P1;durP2;ratioP2;P2;SDS_P1;SDS_P2;PMS_P1;PMS_P2;Temp;Humidity;BMP_temperature;BMP_pressure;BME280_temperature;BME280_humidity;BME280_pressure;Samples;Min_cycle;Max_cycle;Signal;HPM_P1;HPM_P2
2023/02/15 00:00:03;;;;;;;44.00;15.07;;;;;;;-1.90;100.00;102197.72;4985528;28;20042;-70
2023/02/15 00:02:30;;;;;;;32.40;18.33;;;;;;;-1.90;100.00;102203.78;4988147;28;20081;-70
2023/02/15 00:04:56;;;;;;;33.70;18.00;;;;;;;-1.89;100.00;102199.50;4965642;28;20578;-70
2023/02/15 00:07:21;;;;;;;30.17;16.50;;;;;;;-1.89;100.00;102195.22;4981385;28;20409;-70
2023/02/15 00:09:47;;;;;;;35.73;18.20;;;;;;;-1.92;100.00;102194.13;4982719;28;20039;-70
2023/02/15 00:12:13;;;;;;;32.17;18.70;;;;;;;-1.95;100.00;102191.31;4989315;28;20030;-70
2023/02/15 00:14:38;;;;;;;30.03;17.70;;;;;;;-1.98;100.00;102184.22;4983424;28;20038;-70
2023/02/15 00:17:04;;;;;;;37.83;20.77;;;;;;;-1.99;100.00;102187.63;4980588;28;20049;-70
2023/02/15 00:19:29;;;;;;;40.23;22.97;;;;;;;-2.02;100.00;102187.38;4987193;28;20034;-71
2023/02/15 00:21:55;;;;;;;39.23;21.87;;;;;;;-2.04;100.00;102186.41;4986100;28;20045;-70
2023/02/15 00:24:20;;;;;;;39.00;20.80;;;;;;;-2.03;100.00;102172.66;4986047;28;20057;-70
2023/02/15 00:26:47;;;;;;;34.93;19.77;;;;;;;-2.02;100.00;102177.97;4985470;28;20382;-70
2023/02/15 00:29:14;;;;;;;38.20;20.83;;;;;;;-2.05;100.00;102175.13;4983438;28;20509;-70
2023/02/15 00:31:40;;;;;;;33.10;19.50;;;;;;;-2.09;100.00;102167.06;4969238;28;20080;-70
2023/02/15 00:34:15;;;;;;;30.73;16.93;;;;;;;-2.09;100.00;102167.06;4973870;28;20097;-70
2023/02/15 00:36:41;;;;;;;65.87;19.63;;;;;;;-2.10;100.00;102163.56;4986242;28;20489;-70
2023/02/15 00:39:07;;;;;;;32.87;20.10;;;;;;;-2.12;100.00;102165.16;4986267;28;20034;-70
2023/02/15 00:41:34;;;;;;;33.10;18.80;;;;;;;-2.12;100.00;102164.22;4984689;28;20077;-70
2023/02/15 00:44:00;;;;;;;34.97;20.20;;;;;;;-2.16;100.00;102167.41;4984608;28;20039;-70
2023/02/15 00:46:25;;;;;;;34.97;19.73;;;;;;;-2.17;100.00;102163.94;4980911;28;20101;-71
2023/02/15 00:48:50;;;;;;;30.47;18.50;;;;;;;-2.18;100.00;102163.81;4984889;28;20151;-70
2023/02/15 00:51:17;;;;;;;27.13;16.77;;;;;;;-2.21;100.00;102160.19;4990018;28;20036;-70
2023/02/15 00:53:44;;;;;;;37.50;18.43;;;;;;;-2.19;100.00;102162.91;4983869;28;20081;-70
2023/02/15 00:56:09;;;;;;;34.37;18.20;;;;;;;-2.16;100.00;102154.47;4984529;28;20597;-70
2023/02/15 00:58:34;;;;;;;32.13;18.17;;;;;;;-2.19;100.00;102154.25;4966074;28;20035;-70
2023/02/15 01:01:09;;;;;;;93.77;21.23;;;;;;;-2.16;100.00;102159.66;4985359;28;20088;-70
2023/02/15 01:03:34;;;;;;;56.57;16.07;;;;;;;-2.15;100.00;102158.84;4982682;28;20041;-70
2023/02/15 01:06:02;;;;;;;102.73;16.57;;;;;;;-2.23;100.00;102156.63;4971276;28;20409;-70
2023/02/15 01:08:27;;;;;;;35.53;19.97;;;;;;;-2.19;100.00;102154.25;4986018;28;20035;-71
2023/02/15 01:10:53;;;;;;;83.23;20.97;;;;;;;-2.17;100.00;102150.06;4975550;28;20452;-70
2023/02/15 01:13:18;;;;;;;203.73;19.73;;;;;;;-2.19;100.00;102143.91;4974727;28;20409;-71
2023/02/15 01:15:44;;;;;;;82.60;19.33;;;;;;;-2.23;100.00;102142.78;4982807;28;20122;-70
2023/02/15 01:18:10;;;;;;;30.17;17.27;;;;;;;-2.25;100.00;102145.28;4967607;28;20485;-73
2023/02/15 01:20:38;;;;;;;71.93;17.17;;;;;;;-2.24;100.00;102144.47;4985630;28;20117;-73
2023/02/15 01:23:05;;;;;;;29.93;18.27;;;;;;;-2.26;100.00;102137.38;4985867;28;20046;-72
2023/02/15 01:25:30;;;;;;;28.80;17.50;;;;;;;-2.23;100.00;102133.34;4983074;28;20078;-71
2023/02/15 01:27:55;;;;;;;32.67;17.63;;;;;;;-2.22;100.00;102132.56;4974000;28;20433;-71
2023/02/15 01:30:21;;;;;;;36.63;20.97;;;;;;;-2.17;100.00;102122.53;4983840;28;20548;-71
2023/02/15 01:32:47;;;;;;;32.20;19.20;;;;;;;-2.13;100.00;102121.94;4985008;28;20038;-71
2023/02/15 01:35:12;;;;;;;36.43;20.67;;;;;;;-2.18;100.00;102117.25;4973199;28;20050;-71
2023/02/15 01:37:37;;;;;;;42.47;20.87;;;;;;;-2.18;100.00;102114.66;4974674;28;20030;-71
2023/02/15 01:40:08;;;;;;;44.03;23.57;;;;;;;-2.15;100.00;102117.44;4965561;28;20416;-71
2023/02/15 01:42:34;;;;;;;42.83;23.77;;;;;;;-2.13;100.00;102110.72;4967395;28;20129;-71
2023/02/15 01:45:02;;;;;;;44.60;22.33;;;;;;;-2.10;100.00;102108.34;4988934;28;20125;-71
2023/02/15 01:47:42;;;;;;;40.57;23.47;;;;;;;-2.14;100.00;102108.91;4975091;28;20038;-71
2023/02/15 01:50:26;;;;;;;33.13;20.27;;;;;;;-2.22;100.00;102101.50;4965943;28;20027;-71
2023/02/15 01:52:57;;;;;;;37.43;20.97;;;;;;;-2.24;100.00;102097.91;4964790;28;20509;-71
2023/02/15 01:55:26;;;;;;;33.60;19.37;;;;;;;-2.29;100.00;102096.69;4986874;28;20042;-71
2023/02/15 01:57:52;;;;;;;30.17;16.57;;;;;;;-2.35;100.00;102098.84;4983282;28;20043;-71
2023/02/15 02:00:18;;;;;;;29.93;17.23;;;;;;;-2.42;100.00;102094.03;4967414;28;20085;-71
2023/02/15 02:02:49;;;;;;;38.07;20.37;;;;;;;-2.47;100.00;102097.97;4982771;28;20030;-70
2023/02/15 02:05:15;;;;;;;34.07;18.83;;;;;;;-2.47;100.00;102097.97;4984391;28;20041;-71
2023/02/15 02:07:43;;;;;;;40.17;19.93;;;;;;;-2.47;100.00;102090.22;4981316;28;20494;-71
2023/02/15 02:10:13;;;;;;;38.57;20.93;;;;;;;-2.42;100.00;102091.44;4975027;28;20031;-71
2023/02/15 02:12:41;;;;;;;34.80;18.17;;;;;;;-2.38;100.00;102089.97;4984032;28;20029;-71
2023/02/15 02:15:08;;;;;;;34.33;19.30;;;;;;;-2.36;100.00;102085.81;4966346;28;20034;-71
2023/02/15 02:18:01;;;;;;;34.20;18.70;;;;;;;-2.34;100.00;102077.38;4980302;28;20037;-71
2023/02/15 02:20:52;;;;;;;36.57;18.70;;;;;;;-2.33;100.00;102079.19;4982081;28;20058;-71
2023/02/15 02:23:49;;;;;;;36.80;21.43;;;;;;;-2.33;100.00;102075.66;4981532;28;20034;-71
2023/02/15 02:26:58;;;;;;;35.27;20.57;;;;;;;-2.33;100.00;102080.84;4984332;28;20039;-71
2023/02/15 02:29:37;;;;;;;35.27;18.17;;;;;;;-2.36;100.00;102084.09;4984550;28;20038;-72
2023/02/15 02:32:23;;;;;;;38.40;21.37;;;;;;;-2.37;100.00;102084.91;4982037;28;20042;-71
2023/02/15 02:35:18;;;;;;;39.63;20.53;;;;;;;-2.37;100.00;102079.75;4980885;28;20573;-71
2023/02/15 02:38:04;;;;;;;39.17;19.57;;;;;;;-2.38;100.00;102077.97;4980581;28;20545;-71
2023/02/15 02:40:41;;;;;;;42.23;19.23;;;;;;;-2.40;100.00;102079.53;4974033;28;20034;-71
2023/02/15 02:43:25;;;;;;;36.20;20.73;;;;;;;-2.33;100.00;102078.25;4985750;28;20093;-71
2023/02/15 02:46:00;;;;;;;40.67;21.10;;;;;;;-2.34;100.00;102079.06;4987060;28;20030;-71
2023/02/15 02:48:29;;;;;;;40.33;22.90;;;;;;;-2.35;100.00;102082.44;4964077;28;20043;-71
2023/02/15 02:50:54;;;;;;;39.87;22.57;;;;;;;-2.35;100.00;102077.28;4984790;28;20030;-71
2023/02/15 02:53:20;;;;;;;41.60;23.40;;;;;;;-2.34;100.00;102073.88;4986287;28;20030;-71
2023/02/15 02:56:15;;;;;;;47.97;23.77;;;;;;;-2.30;100.00;102069.03;4984398;28;20044;-71
2023/02/15 02:58:54;;;;;;;41.23;23.30;;;;;;;-2.32;100.00;102068.03;4982933;28;20049;-71
2023/02/15 03:01:32;;;;;;;44.80;21.73;;;;;;;-2.48;100.00;102071.22;4962892;28;20066;-71
2023/02/15 03:04:08;;;;;;;53.70;25.40;;;;;;;-2.48;100.00;102070.34;4970679;28;20457;-71
2023/02/15 03:06:38;;;;;;;54.97;26.53;;;;;;;-2.50;100.00;102066.72;4981712;28;20089;-71
2023/02/15 03:09:14;;;;;;;45.03;23.40;;;;;;;-2.44;100.00;102069.75;4974435;28;20081;-71
2023/02/15 03:11:42;;;;;;;53.13;26.67;;;;;;;-2.42;100.00;102068.16;4980345;28;20035;-71
2023/02/15 03:14:08;;;;;;;48.27;23.70;;;;;;;-2.39;100.00;102067.50;4982223;28;20634;-71
2023/02/15 03:16:34;;;;;;;50.00;24.67;;;;;;;-2.39;100.00;102065.78;4967859;28;20038;-71
2023/02/15 03:19:09;;;;;;;50.63;24.13;;;;;;;-2.41;100.00;102064.81;4981944;28;20045;-71
2023/02/15 03:21:57;;;;;;;47.47;23.73;;;;;;;-2.44;100.00;102064.56;4985953;28;20433;-71
2023/02/15 03:24:27;;;;;;;42.63;23.03;;;;;;;-2.46;100.00;102055.84;4982402;28;20101;-70
2023/02/15 03:26:54;;;;;;;43.27;24.77;;;;;;;-2.47;100.00;102059.19;4979582;28;20042;-71
2023/02/15 03:29:23;;;;;;;43.00;23.13;;;;;;;-2.49;100.00;102063.34;4966377;28;20084;-71
2023/02/15 03:31:56;;;;;;;43.40;22.67;;;;;;;-2.51;100.00;102059.78;4980700;28;20038;-71
2023/02/15 03:34:22;;;;;;;42.72;23.50;;;;;;;-2.60;100.00;102054.84;4984785;28;20067;-71
2023/02/15 03:36:58;;;;;;;41.50;21.87;;;;;;;-2.67;100.00;102058.69;4980727;28;20039;-71
2023/02/15 03:39:33;;;;;;;39.50;21.17;;;;;;;-2.66;100.00;102051.81;4980490;28;20039;-71
2023/02/15 03:42:26;;;;;;;42.10;22.77;;;;;;;-2.71;100.00;102050.59;4980699;28;20082;-70
2023/02/15 03:45:05;;;;;;;38.30;21.15;;;;;;;-2.75;100.00;102053.72;4981476;28;20035;-70
2023/02/15 03:47:35;;;;;;;42.03;21.57;;;;;;;-2.76;100.00;102050.25;4978078;28;20046;-70
2023/02/15 03:52:59;;;;;;;40.80;20.53;;;;;;;-2.77;100.00;102045.88;4987006;28;20038;-71
2023/02/15 03:55:25;;;;;;;51.50;21.50;;;;;;;-2.78;100.00;102051.81;4986913;28;20081;-72
2023/02/15 04:03:36;;;;;;;46.13;20.97;;;;;;;-2.70;100.00;102048.13;4984214;28;20113;-71
2023/02/15 04:06:02;;;;;;;46.47;23.53;;;;;;;-2.69;100.00;102044.75;4982897;28;20050;-71
2023/02/15 04:11:12;;;;;;;57.80;26.77;;;;;;;-2.68;100.00;102051.69;4987005;28;20129;-71
2023/02/15 04:13:37;;;;;;;52.97;24.50;;;;;;;-2.67;100.00;102043.19;4988038;28;20074;-71
2023/02/15 04:16:03;;;;;;;45.00;21.87;;;;;;;-2.66;100.00;102041.47;4982643;28;20033;-71
2023/02/15 04:26:47;;;;;;;55.23;24.47;;;;;;;-2.77;100.00;102032.06;4982524;28;20071;-71
2023/02/15 04:29:16;;;;;;;53.80;26.37;;;;;;;-2.80;100.00;102035.34;4986490;28;20074;-71
2023/02/15 04:31:42;;;;;;;44.47;21.73;;;;;;;-2.75;100.00;102033.06;4983372;28;20038;-70
2023/02/15 04:34:08;;;;;;;49.77;25.30;;;;;;;-2.71;100.00;102025.63;4976929;28;20093;-70
2023/02/15 04:36:33;;;;;;;47.63;21.83;;;;;;;-2.69;100.00;102025.75;4985059;28;20061;-71
2023/02/15 04:38:58;;;;;;;46.93;22.50;;;;;;;-2.73;100.00;102014.28;4983596;28;20034;-71
2023/02/15 04:41:24;;;;;;;48.47;24.80;;;;;;;-2.74;100.00;102009.91;4985569;28;20042;-71
2023/02/15 04:43:49;;;;;;;49.27;24.93;;;;;;;-2.73;100.00;102001.38;4983677;28;20118;-71
2023/02/15 04:46:14;;;;;;;47.17;23.93;;;;;;;-2.71;100.00;102004.06;4982770;28;20081;-71
2023/02/15 04:48:40;;;;;;;46.40;23.47;;;;;;;-2.70;100.00;102000.69;4987014;28;20038;-71
2023/02/15 04:51:06;;;;;;;41.63;22.17;;;;;;;-2.73;100.00;102000.47;4988229;28;20049;-71
2023/02/15 04:53:32;;;;;;;45.03;22.37;;;;;;;-2.77;100.00;102003.66;4988890;28;20038;-71
2023/02/15 04:55:57;;;;;;;46.33;22.43;;;;;;;-2.74;100.00;101999.59;4988116;28;20494;-71
2023/02/15 04:58:23;;;;;;;46.37;22.23;;;;;;;-2.74;100.00;101989.25;4984182;28;20120;-71
2023/02/15 05:00:48;;;;;;;46.27;22.83;;;;;;;-2.76;100.00;101996.00;4988732;28;20409;-71
2023/02/15 05:03:13;;;;;;;49.87;22.43;;;;;;;-2.88;100.00;101995.13;4985091;28;20045;-71
2023/02/15 05:05:40;;;;;;;45.30;22.13;;;;;;;-2.87;100.00;101996.91;4987016;28;20030;-71
2023/02/15 05:08:05;;;;;;;43.63;21.93;;;;;;;-2.89;100.00;101995.91;4984035;28;20047;-72
2023/02/15 05:10:30;;;;;;;46.00;22.57;;;;;;;-2.86;100.00;102003.88;4985708;28;20441;-71
2023/02/15 05:12:56;;;;;;;44.00;22.30;;;;;;;-2.85;100.00;101997.03;4982119;28;20030;-71
2023/02/15 05:15:21;;;;;;;42.43;21.87;;;;;;;-2.86;100.00;102001.28;4983169;28;20030;-71
2023/02/15 05:17:47;;;;;;;43.70;20.87;;;;;;;-2.83;100.00;101998.91;4983911;28;20034;-71
2023/02/15 05:20:12;;;;;;;46.77;23.57;;;;;;;-2.79;100.00;101992.31;4985281;28;20413;-71
2023/02/15 05:22:37;;;;;;;45.70;22.60;;;;;;;-2.75;100.00;101997.81;4991281;28;20038;-70
2023/02/15 05:30:30;;;;;;;48.23;22.83;;;;;;;-2.65;100.00;101984.75;4988629;28;20117;-71
2023/02/15 05:32:55;;;;;;;48.70;23.50;;;;;;;-2.62;100.00;101983.13;4981781;28;20529;-71
2023/02/15 05:35:21;;;;;;;45.43;22.57;;;;;;;-2.65;100.00;101979.56;4985855;28;20496;-70
2023/02/15 05:37:46;;;;;;;46.17;23.00;;;;;;;-2.64;100.00;101985.63;4981189;28;20655;-70
2023/02/15 05:40:12;;;;;;;41.53;21.70;;;;;;;-2.63;100.00;101981.34;4982677;28;20090;-71
2023/02/15 05:42:37;;;;;;;47.67;23.23;;;;;;;-2.59;100.00;101978.19;4982763;28;20434;-71
2023/02/15 05:45:03;;;;;;;48.13;21.47;;;;;;;-2.58;100.00;101980.00;4984399;28;20045;-71
2023/02/15 05:47:29;;;;;;;48.67;23.00;;;;;;;-2.55;100.00;101980.19;4985912;28;20493;-70
2023/02/15 05:49:54;;;;;;;48.13;23.00;;;;;;;-2.53;100.00;101981.22;4987942;28;20018;-71
2023/02/15 05:52:19;;;;;;;50.73;23.23;;;;;;;-2.56;100.00;101975.84;4990380;28;20489;-71
2023/02/15 05:54:45;;;;;;;46.57;23.83;;;;;;;-2.63;100.00;101971.03;4988316;28;20038;-71
2023/02/15 05:57:10;;;;;;;51.23;23.47;;;;;;;-2.67;100.00;101975.09;4987668;28;20041;-71
2023/02/15 05:59:35;;;;;;;47.60;22.40;;;;;;;-2.68;100.00;101969.00;4991362;28;20121;-71
2023/02/15 06:02:01;;;;;;;46.90;20.73;;;;;;;-2.68;100.00;101968.09;4988474;28;20046;-71
2023/02/15 06:04:26;;;;;;;58.47;27.47;;;;;;;-2.69;100.00;101972.38;4981779;28;20046;-71
2023/02/15 06:06:51;;;;;;;43.97;23.93;;;;;;;-2.76;100.00;101969.25;4983206;28;20129;-71
2023/02/15 06:09:18;;;;;;;55.27;25.67;;;;;;;-2.79;100.00;101964.78;4982050;28;20035;-71
2023/02/15 06:11:44;;;;;;;48.90;23.57;;;;;;;-2.80;100.00;101970.75;4984669;28;20084;-71
2023/02/15 06:14:10;;;;;;;53.87;26.20;;;;;;;-2.79;100.00;101975.09;4982647;28;20046;-71
2023/02/15 06:16:35;;;;;;;49.13;23.20;;;;;;;-2.78;100.00;101976.88;4981614;28;20100;-71
2023/02/15 06:19:01;;;;;;;54.53;24.67;;;;;;;-2.79;100.00;101974.22;4983131;28;20044;-71
2023/02/15 06:21:27;;;;;;;52.43;25.40;;;;;;;-2.78;100.00;101982.06;4982423;28;20066;-71
2023/02/15 06:23:52;;;;;;;57.77;24.57;;;;;;;-2.77;100.00;101986.44;4982794;28;20069;-71
2023/02/15 06:26:18;;;;;;;63.53;25.90;;;;;;;-2.74;100.00;101978.91;4984439;28;20034;-71
2023/02/15 06:28:43;;;;;;;47.80;24.40;;;;;;;-2.74;100.00;101984.09;4984033;28;20093;-71
2023/02/15 06:31:08;;;;;;;48.03;23.67;;;;;;;-2.73;100.00;101983.28;4982413;28;20038;-71
2023/02/15 06:33:34;;;;;;;55.47;24.50;;;;;;;-2.68;100.00;101973.28;4984563;28;20040;-71
2023/02/15 06:36:00;;;;;;;55.57;25.33;;;;;;;-2.61;100.00;101975.50;4985629;28;20027;-71
2023/02/15 06:38:25;;;;;;;51.93;24.80;;;;;;;-2.61;100.00;101979.78;4987676;28;20046;-71
2023/02/15 06:40:51;;;;;;;46.20;24.33;;;;;;;-2.58;100.00;101967.06;4986163;28;20035;-71
2023/02/15 06:43:16;;;;;;;46.10;24.53;;;;;;;-2.55;100.00;101986.25;4987895;28;20121;-71
2023/02/15 06:45:42;;;;;;;49.63;23.90;;;;;;;-2.54;100.00;101987.16;4981083;28;20110;-71
2023/02/15 06:48:07;;;;;;;44.33;23.47;;;;;;;-2.49;100.00;101980.63;4983062;28;20085;-71
2023/02/15 06:50:34;;;;;;;52.43;24.30;;;;;;;-2.42;100.00;101988.03;4981095;28;20038;-71
2023/02/15 06:52:59;;;;;;;43.23;22.10;;;;;;;-2.37;100.00;101990.94;4979218;28;20379;-71
2023/02/15 06:55:25;;;;;;;49.23;22.27;;;;;;;-2.34;100.00;101981.69;4984092;28;20069;-71
2023/02/15 06:57:50;;;;;;;43.87;22.43;;;;;;;-2.29;100.00;101980.31;4980872;28;20093;-71
2023/02/15 07:00:17;;;;;;;44.37;23.00;;;;;;;-2.28;100.00;101987.31;4983272;28;20034;-71
2023/02/15 07:02:43;;;;;;;42.53;22.97;;;;;;;-2.22;100.00;101982.53;4990486;28;20112;-71
2023/02/15 07:05:08;;;;;;;43.70;22.13;;;;;;;-2.17;100.00;101981.94;4984037;28;20653;-71
2023/02/15 07:07:33;;;;;;;53.50;24.87;;;;;;;-2.09;100.00;101983.38;4979622;28;20147;-71
2023/02/15 07:09:59;;;;;;;63.63;27.63;;;;;;;-1.98;100.00;101977.25;4983719;28;20035;-71
2023/02/15 07:12:44;;;;;;;52.50;24.20;;;;;;;-1.84;100.00;101970.41;4980023;28;20097;-71
2023/02/15 07:15:11;;;;;;;53.87;25.70;;;;;;;-1.69;100.00;101966.25;4982334;28;20047;-71
2023/02/15 07:17:36;;;;;;;48.53;23.70;;;;;;;-1.63;100.00;101953.69;4979384;28;20030;-71
2023/02/15 07:20:07;;;;;;;51.13;25.33;;;;;;;-1.56;100.00;101955.91;4982982;28;20489;-71
2023/02/15 07:22:35;;;;;;;43.33;22.33;;;;;;;-1.51;100.00;101960.50;4962788;28;20039;-71
2023/02/15 07:25:01;;;;;;;46.83;24.03;;;;;;;-1.44;100.00;101958.41;4985141;28;20537;-71
2023/02/15 07:27:26;;;;;;;50.20;25.97;;;;;;;-1.34;100.00;101954.69;4983983;28;20125;-71
2023/02/15 07:29:51;;;;;;;48.37;24.23;;;;;;;-1.23;100.00;101952.78;4987118;28;20034;-71
2023/02/15 07:32:17;;;;;;;42.77;22.93;;;;;;;-1.17;100.00;101945.44;4984614;28;20061;-71
2023/02/15 07:34:42;;;;;;;43.70;24.27;;;;;;;-1.10;100.00;101960.59;4987589;28;20042;-73
2023/02/15 07:37:07;;;;;;;51.87;24.67;;;;;;;-0.97;100.00;101954.44;4986774;28;20042;-73
2023/02/15 07:39:33;;;;;;;48.93;24.80;;;;;;;-0.85;100.00;101946.56;4984406;28;20068;-71
2023/02/15 07:41:59;;;;;;;43.23;22.63;;;;;;;-0.73;100.00;101949.94;4988177;28;20026;-71
2023/02/15 07:44:29;;;;;;;44.97;23.27;;;;;;;-0.64;100.00;101942.72;4980937;28;20026;-71
2023/02/15 07:46:54;;;;;;;50.23;24.13;;;;;;;-0.54;100.00;101939.00;4989547;28;20038;-71
2023/02/15 07:49:20;;;;;;;45.83;24.80;;;;;;;-0.45;100.00;101940.47;4988933;28;20038;-71
2023/02/15 07:51:45;;;;;;;43.37;24.00;;;;;;;-0.36;100.00;101931.44;4987000;28;20034;-71
2023/02/15 07:54:11;;;;;;;48.33;23.73;;;;;;;-0.26;100.00;101920.81;4985611;28;20045;-71
2023/02/15 07:56:36;;;;;;;49.23;25.00;;;;;;;-0.18;100.00;101924.75;4987301;28;20045;-71
2023/02/15 07:59:03;;;;;;;59.17;27.03;;;;;;;-0.08;100.00;101916.72;4988692;28;20039;-71
2023/02/15 08:01:37;;;;;;;44.83;24.70;;;;;;;0.06;100.00;101916.63;4984592;28;20046;-71
2023/02/15 08:04:05;;;;;;;47.47;24.20;;;;;;;0.15;100.00;101914.56;4987047;28;20034;-71
2023/02/15 08:06:32;;;;;;;50.50;25.57;;;;;;;0.28;100.00;101919.66;4985813;28;20030;-71
2023/02/15 08:08:58;;;;;;;50.13;26.43;;;;;;;0.39;100.00;101902.06;4986795;28;20057;-71
2023/02/15 08:11:32;;;;;;;49.50;25.90;;;;;;;0.50;100.00;101911.41;4989486;28;20072;-71
2023/02/15 08:14:06;;;;;;;57.80;25.57;;;;;;;0.61;100.00;101904.22;4993036;28;20096;-71
2023/02/15 08:16:35;;;;;;;56.13;25.70;;;;;;;0.70;100.00;101896.91;4989707;28;20105;-71
2023/02/15 08:19:11;;;;;;;47.40;24.10;;;;;;;0.81;100.00;101905.28;4987917;28;20114;-71
2023/02/15 08:21:39;;;;;;;42.88;23.00;;;;;;;0.93;100.00;101903.38;4984265;28;20410;-71
2023/02/15 08:24:05;;;;;;;45.65;21.77;;;;;;;1.00;100.00;101902.91;4985165;28;20516;-71
2023/02/15 08:26:31;;;;;;;37.58;21.88;;;;;;;1.05;100.00;101900.56;4984066;28;20045;-71
2023/02/15 08:28:59;;;;;;;42.40;22.50;;;;;;;1.09;100.00;101898.19;4987041;28;20034;-71
2023/02/15 08:31:24;;;;;;;38.40;16.85;;;;;;;1.15;100.00;101899.34;4973003;28;20022;-71
2023/02/15 08:33:52;;;;;;;37.70;17.48;;;;;;;1.23;100.00;101901.56;4985783;28;20125;-71
2023/02/15 08:36:21;;;;;;;43.05;19.38;;;;;;;1.31;100.00;101900.25;4989112;28;20034;-71
2023/02/15 08:38:46;;;;;;;36.00;16.80;;;;;;;1.42;100.00;101894.75;4988307;28;20108;-71
2023/02/15 08:41:21;;;;;;;34.35;16.02;;;;;;;1.52;100.00;101897.00;4986197;28;20113;-71
2023/02/15 08:43:49;;;;;;;37.80;15.85;;;;;;;1.56;100.00;101891.13;4983642;28;20043;-71
2023/02/15 08:46:15;;;;;;;33.20;15.88;;;;;;;1.66;100.00;101888.19;4981940;28;20042;-72
2023/02/15 08:48:41;;;;;;;39.97;18.30;;;;;;;1.75;100.00;101888.66;4986470;28;20514;-71
2023/02/15 08:51:17;;;;;;;41.22;18.55;;;;;;;1.86;100.00;101883.09;4984467;28;20030;-71
2023/02/15 08:53:45;;;;;;;35.20;16.15;;;;;;;1.91;100.00;101877.34;4986426;28;20034;-71
2023/02/15 08:56:11;;;;;;;38.08;17.33;;;;;;;2.01;100.00;101873.47;4985269;28;20034;-71
2023/02/15 08:58:38;;;;;;;34.78;15.18;;;;;;;2.13;100.00;101863.66;4987647;28;20042;-71
2023/02/15 09:01:11;;;;;;;37.03;16.75;;;;;;;2.27;100.00;101868.66;4986001;28;20050;-71
2023/02/15 09:03:36;;;;;;;30.38;14.20;;;;;;;2.34;100.00;101868.16;4988559;28;20044;-71
2023/02/15 09:06:02;;;;;;;34.88;18.33;;;;;;;2.43;100.00;101865.97;4983353;28;20118;-71
2023/02/15 09:08:27;;;;;;;29.73;14.02;;;;;;;2.51;100.00;101864.63;4986122;28;20383;-71
2023/02/15 09:10:53;;;;;;;28.33;13.13;;;;;;;2.62;100.00;101866.06;4987277;28;20042;-71
2023/02/15 09:13:20;;;;;;;29.13;13.93;;;;;;;2.75;100.00;101859.69;4984397;28;20031;-71
2023/02/15 09:15:45;;;;;;;33.05;15.25;;;;;;;2.86;100.00;101865.41;4982927;28;20042;-72
2023/02/15 09:18:12;;;;;;;27.83;14.27;;;;;;;2.96;100.00;101867.63;4983957;28;20456;-71
2023/02/15 09:20:37;;;;;;;27.27;12.45;;;;;;;3.03;100.00;101863.56;4985631;28;20157;-71
2023/02/15 09:23:02;;;;;;;28.77;13.23;;;;;;;3.14;100.00;101858.84;4983643;28;20136;-71
2023/02/15 09:25:28;;;;;;;29.95;13.93;;;;;;;3.20;100.00;101859.13;4983129;28;20039;-72
2023/02/15 09:27:53;;;;;;;25.38;11.93;;;;;;;3.26;100.00;101862.91;4982016;28;20118;-71
2023/02/15 09:30:19;;;;;;;23.15;12.38;;;;;;;3.39;100.00;101861.72;4984794;28;20090;-71
2023/02/15 09:32:45;;;;;;;31.30;13.25;;;;;;;3.45;100.00;101856.78;4983706;28;20038;-71
2023/02/15 09:35:11;;;;;;;27.52;12.90;;;;;;;3.53;100.00;101851.00;4984531;28;20112;-71
2023/02/15 09:37:37;;;;;;;24.25;12.45;;;;;;;3.66;100.00;101850.69;4984729;28;20069;-71
2023/02/15 09:40:03;;;;;;;26.00;11.32;;;;;;;3.80;100.00;101839.16;4982231;28;20117;-71
2023/02/15 09:43:05;;;;;;;19.33;9.77;;;;;;;3.94;100.00;101831.88;4987392;28;20515;-71
2023/02/15 09:45:56;;;;;;;23.13;10.45;;;;;;;4.05;100.00;101833.19;4983269;28;20085;-71
2023/02/15 09:48:37;;;;;;;19.83;10.05;;;;;;;4.19;100.00;101836.38;4981366;28;20045;-71
2023/02/15 09:51:29;;;;;;;25.98;13.13;;;;;;;4.34;100.00;101834.38;4986655;28;20077;-71
2023/02/15 09:54:14;;;;;;;20.23;10.55;;;;;;;4.45;100.00;101833.91;4987598;28;20034;-71
2023/02/15 09:56:59;;;;;;;27.65;9.70;;;;;;;4.51;100.00;101831.56;4985222;28;20040;-71
2023/02/15 09:59:38;;;;;;;20.38;10.98;;;;;;;4.59;100.00;101831.03;4984098;28;20034;-71
2023/02/15 10:02:18;;;;;;;25.17;10.93;;;;;;;4.71;100.00;101827.97;4985006;28;20819;-71
2023/02/15 10:05:21;;;;;;;21.55;10.43;;;;;;;4.83;100.00;101825.84;4988448;28;20042;-71
2023/02/15 10:07:59;;;;;;;;;;;;;;;4.90;100.00;101826.97;4984985;28;20037;-71
2023/02/15 10:10:53;;;;;;;18.23;8.90;;;;;;;5.02;100.00;101829.16;4987397;28;19917;-72
2023/02/15 10:13:31;;;;;;;21.25;10.90;;;;;;;5.11;100.00;101819.03;4987909;28;20043;-71
2023/02/15 10:16:07;;;;;;;19.80;10.02;;;;;;;5.24;100.00;101823.88;4987380;28;20038;-71
2023/02/15 10:18:53;;;;;;;19.13;8.50;;;;;;;5.35;100.00;101820.75;4985887;28;20049;-71
2023/02/15 10:21:48;;;;;;;19.90;10.13;;;;;;;5.42;100.00;101812.25;4981777;28;20478;-71
2023/02/15 10:24:54;;;;;;;16.80;9.05;;;;;;;5.49;100.00;101809.91;4981995;28;20039;-71
2023/02/15 10:27:21;;;;;;;20.77;9.45;;;;;;;5.55;100.00;101798.75;4984644;28;20508;-71
2023/02/15 10:30:07;;;;;;;17.00;8.52;;;;;;;5.65;100.00;101798.25;4984411;28;20489;-71
2023/02/15 10:32:48;;;;;;;20.95;9.43;;;;;;;5.71;100.00;101790.59;4982897;28;20042;-71
2023/02/15 10:35:23;;;;;;;22.40;10.77;;;;;;;5.85;100.00;101796.31;4985683;28;20476;-71
2023/02/15 10:38:13;;;;;;;20.83;10.18;;;;;;;5.94;100.00;101780.03;4986125;28;20527;-71
2023/02/15 10:41:08;;;;;;;19.15;10.05;;;;;;;6.00;100.00;101772.38;5004164;22;20022;-78
2023/02/15 10:43:45;;;;;;;21.65;9.40;;;;;;;6.15;99.75;101780.69;5028772;28;20107;-78
2023/02/15 10:46:44;;;;;;;15.52;8.35;;;;;;;6.24;99.23;101776.63;5040041;28;20037;-78
2023/02/15 10:49:47;;;;;;;19.08;9.68;;;;;;;6.35;99.05;101775.22;5051237;28;20614;-79
2023/02/15 10:52:25;;;;;;;14.93;8.05;;;;;;;6.45;98.88;101771.16;5049836;28;20093;-79
2023/02/15 10:55:22;;;;;;;15.75;8.52;;;;;;;6.55;98.55;101771.47;5032766;28;20044;-79
2023/02/15 10:58:03;;;;;;;17.95;9.63;;;;;;;6.67;97.78;101756.94;5008806;28;20048;-78
2023/02/15 11:00:45;;;;;;;17.33;9.02;;;;;;;6.77;97.48;101761.59;5048663;28;20029;-80
2023/02/15 11:03:33;;;;;;;16.15;9.45;;;;;;;6.80;96.30;101752.06;5051185;28;20029;-78
2023/02/15 11:05:58;;;;;;;15.77;8.60;;;;;;;6.91;97.31;101752.38;5048402;28;20124;-80
2023/02/15 11:08:26;;;;;;;20.75;9.70;;;;;;;7.00;96.94;101747.41;5054201;28;20033;-79
2023/02/15 11:11:00;;;;;;;17.83;9.52;;;;;;;7.12;97.00;101746.84;5053781;28;20094;-80
2023/02/15 11:13:33;;;;;;;16.63;8.45;;;;;;;7.22;96.16;101743.63;5014428;28;20038;-80
2023/02/15 11:16:27;;;;;;;13.88;7.75;;;;;;;7.30;95.69;101741.19;5046395;28;20041;-79
2023/02/15 11:19:05;;;;;;;15.63;7.95;;;;;;;7.35;94.70;101734.31;5042322;28;20496;-78
2023/02/15 11:21:38;;;;;;;18.38;9.80;;;;;;;7.40;95.04;101735.34;5054377;28;20055;-79
2023/02/15 11:24:13;;;;;;;15.30;8.30;;;;;;;7.51;92.84;101734.72;5049352;28;20037;-79
2023/02/15 11:26:47;;;;;;;18.88;9.13;;;;;;;7.62;93.09;101742.06;5051577;28;20492;-80
2023/02/15 11:29:24;;;;;;;19.17;9.93;;;;;;;7.69;93.43;101732.56;5033736;28;20423;-79
2023/02/15 11:31:54;;;;;;;15.90;8.38;;;;;;;7.74;93.30;101733.56;5048585;28;20037;-80
2023/02/15 11:34:36;;;;;;;19.40;10.23;;;;;;;7.87;93.18;101735.66;5033042;28;20049;-79
2023/02/15 11:37:13;;;;;;;15.60;7.97;;;;;;;7.99;91.93;101734.16;5026096;28;20500;-78
2023/02/15 11:39:38;;;;;;;19.20;8.82;;;;;;;8.06;92.74;101730.81;5037070;28;20083;-79
2023/02/15 11:42:13;;;;;;;14.75;7.22;;;;;;;8.16;92.18;101726.66;5048969;28;20033;-78
2023/02/15 11:44:54;;;;;;;18.70;9.55;;;;;;;8.20;91.59;101724.16;5050801;28;20033;-79
2023/02/15 11:47:20;;;;;;;19.58;9.23;;;;;;;8.33;91.84;101714.78;5042771;28;20098;-78